createdAt,value
2022-07-29T00:00:25.312Z,100415.97
2022-07-29T00:03:28.258Z,100421.44
2022-07-29T00:06:30.840Z,100418.78
2022-07-29T00:09:33.845Z,100415.97
2022-07-29T00:12:54.004Z,100423.50
2022-07-29T00:15:56.841Z,100416.16
2022-07-29T00:19:07.785Z,100415.44
2022-07-29T00:22:10.785Z,100416.41
2022-07-29T00:25:14.000Z,100411.97
2022-07-29T00:28:16.795Z,100412.81
2022-07-29T00:31:19.464Z,100421.03
2022-07-29T00:34:41.296Z,100416.84
2022-07-29T00:37:44.009Z,100419.63
2022-07-29T00:40:48.365Z,100422.16
2022-07-29T00:43:50.832Z,100415.75
2022-07-29T00:46:53.745Z,100425.22
2022-07-29T00:49:56.388Z,100423.97
2022-07-29T00:53:00.181Z,100415.19
2022-07-29T00:56:02.745Z,100406.69
2022-07-29T00:59:05.573Z,100406.03
2022-07-29T01:02:08.151Z,100412.16
2022-07-29T01:05:12.374Z,100416.87
2022-07-29T01:08:16.805Z,100407.00
2022-07-29T01:11:20.231Z,100404.62
2022-07-29T01:14:23.229Z,100401.31
2022-07-29T01:17:52.601Z,100409.38
2022-07-29T01:21:44.849Z,100405.06
2022-07-29T01:25:24.995Z,100411.31
2022-07-29T01:28:49.309Z,100404.09
2022-07-29T01:32:28.168Z,100400.47
2022-07-29T01:35:41.096Z,100400.03
2022-07-29T01:38:47.589Z,100396.56
2022-07-29T01:42:24.098Z,100399.19
2022-07-29T01:45:44.192Z,100398.94
2022-07-29T01:49:12.317Z,100401.59
2022-07-29T01:52:22.881Z,100404.22
2022-07-29T01:55:29.887Z,100403.81
2022-07-29T01:58:34.174Z,100395.75
2022-07-29T02:01:39.278Z,100392.13
2022-07-29T02:04:44.117Z,100398.38
2022-07-29T02:07:49.088Z,100390.84
2022-07-29T02:10:53.701Z,100389.87
2022-07-29T02:13:58.972Z,100393.63
2022-07-29T02:17:03.802Z,100395.03
2022-07-29T02:20:07.358Z,100397.66
2022-07-29T02:23:12.725Z,100389.47
2022-07-29T02:26:16.072Z,100392.94
2022-07-29T02:29:25.878Z,100381.41
2022-07-29T02:32:29.405Z,100384.84
2022-07-29T02:35:34.675Z,100381.78
2022-07-29T02:38:58.528Z,100387.38
2022-07-29T02:42:14.568Z,100387.50
2022-07-29T02:45:17.150Z,100396.50
2022-07-29T02:48:28.578Z,100387.47
2022-07-29T02:52:05.356Z,100389.13
2022-07-29T02:55:14.300Z,100383.00
2022-07-29T02:58:22.078Z,100388.72
2022-07-29T03:01:26.651Z,100384.22
2022-07-29T03:04:31.799Z,100386.00
2022-07-29T03:07:36.239Z,100382.94
2022-07-29T03:10:41.323Z,100390.88
2022-07-29T03:13:45.087Z,100384.75
2022-07-29T03:16:48.663Z,100383.31
2022-07-29T03:19:51.823Z,100393.28
2022-07-29T03:22:54.315Z,100397.91
2022-07-29T03:25:57.720Z,100397.91
2022-07-29T03:29:00.920Z,100393.81
2022-07-29T03:32:07.341Z,100400.09
2022-07-29T03:35:11.397Z,100396.63
2022-07-29T03:38:14.369Z,100397.59
2022-07-29T03:41:18.729Z,100397.91
2022-07-29T03:44:27.286Z,100389.44
2022-07-29T03:47:49.933Z,100386.44
2022-07-29T03:50:54.735Z,100398.69
2022-07-29T03:53:57.681Z,100398.41
2022-07-29T03:57:02.986Z,100400.22
2022-07-29T04:00:06.876Z,100405.63
2022-07-29T04:03:11.690Z,100405.63
2022-07-29T04:06:14.390Z,100405.63
2022-07-29T04:09:17.114Z,100408.69
2022-07-29T04:12:19.753Z,100409.94
2022-07-29T04:15:22.741Z,100408.81
2022-07-29T04:18:25.710Z,100406.63
2022-07-29T04:21:28.571Z,100417.47
2022-07-29T04:24:31.084Z,100413.59
2022-07-29T04:27:33.872Z,100415.28
2022-07-29T04:30:38.085Z,100408.88
2022-07-29T04:33:40.968Z,100408.22
2022-07-29T04:36:43.475Z,100412.66
2022-07-29T04:39:46.280Z,100403.22
2022-07-29T04:42:49.546Z,100408.38
2022-07-29T04:45:52.484Z,100407.69
2022-07-29T04:48:55.230Z,100403.97
2022-07-29T04:51:59.014Z,100406.16
2022-07-29T04:55:01.942Z,100410.34
2022-07-29T04:58:04.806Z,100415.25
2022-07-29T05:01:07.402Z,100416.75
2022-07-29T05:04:10.235Z,100419.69
2022-07-29T05:07:12.735Z,100414.38
2022-07-29T05:10:15.553Z,100416.31
2022-07-29T05:13:18.230Z,100416.28
2022-07-29T05:16:21.190Z,100421.44
2022-07-29T05:19:24.328Z,100414.03
2022-07-29T05:22:27.154Z,100413.97
2022-07-29T05:25:40.738Z,100409.25
2022-07-29T05:28:46.770Z,100414.22
2022-07-29T05:31:49.288Z,100411.91
2022-07-29T05:34:52.086Z,100416.94
2022-07-29T05:37:54.554Z,100417.75
2022-07-29T05:40:59.645Z,100408.81
2022-07-29T05:44:02.175Z,100415.97
2022-07-29T05:47:04.992Z,100419.06
2022-07-29T05:50:08.149Z,100424.88
2022-07-29T05:53:20.137Z,100425.41
2022-07-29T05:56:22.948Z,100417.88
2022-07-29T05:59:30.172Z,100427.28
2022-07-29T06:02:33.161Z,100423.81
2022-07-29T06:05:36.070Z,100423.56
2022-07-29T06:08:38.940Z,100424.94
2022-07-29T06:11:42.465Z,100426.69
2022-07-29T06:14:45.013Z,100422.03
2022-07-29T06:17:59.009Z,100426.59
2022-07-29T06:21:02.801Z,100432.69
2022-07-29T06:24:06.125Z,100429.84
2022-07-29T06:27:08.789Z,100422.59
2022-07-29T06:30:12.187Z,100422.41
2022-07-29T06:33:19.722Z,100432.06
2022-07-29T06:36:23.537Z,100434.22
2022-07-29T06:39:28.921Z,100433.09
2022-07-29T06:42:31.654Z,100432.94
2022-07-29T06:45:37.676Z,100443.47
2022-07-29T06:48:43.118Z,100438.84
2022-07-29T06:51:45.778Z,100439.94
2022-07-29T06:54:49.309Z,100441.16
2022-07-29T06:57:52.321Z,100435.31
2022-07-29T07:00:56.786Z,100436.38
2022-07-29T07:04:01.779Z,100433.69
2022-07-29T07:07:04.689Z,100434.03
2022-07-29T07:10:07.679Z,100426.03
2022-07-29T07:13:11.455Z,100436.66
2022-07-29T07:16:14.213Z,100437.44
2022-07-29T07:19:17.145Z,100428.50
2022-07-29T07:22:19.753Z,100419.31
2022-07-29T07:25:23.943Z,100415.31
2022-07-29T07:28:26.610Z,100424.31
2022-07-29T07:31:29.690Z,100421.66
2022-07-29T07:34:32.367Z,100416.13
2022-07-29T07:37:35.611Z,100419.63
2022-07-29T07:40:38.434Z,100416.41
2022-07-29T07:43:41.611Z,100420.09
2022-07-29T07:46:45.898Z,100415.59
2022-07-29T07:49:48.673Z,100414.53
2022-07-29T07:52:53.596Z,100416.69
2022-07-29T07:56:12.823Z,100415.63
2022-07-29T07:59:15.633Z,100398.62
2022-07-29T08:02:18.530Z,100409.63
2022-07-29T08:05:21.495Z,100412.47
2022-07-29T08:08:24.060Z,100407.47
2022-07-29T08:11:26.971Z,100407.81
2022-07-29T08:14:32.081Z,100405.63
2022-07-29T08:17:35.515Z,100403.00
2022-07-29T08:20:39.866Z,100405.06
2022-07-29T08:23:51.668Z,100399.50
2022-07-29T08:26:55.431Z,100396.06
2022-07-29T08:29:58.443Z,100395.31
2022-07-29T08:33:01.336Z,100398.94
2022-07-29T08:36:04.800Z,100396.66
2022-07-29T08:39:07.341Z,100397.03
2022-07-29T08:42:11.588Z,100399.28
2022-07-29T08:45:14.164Z,100397.47
2022-07-29T08:48:23.083Z,100391.59
2022-07-29T08:51:28.772Z,100398.03
2022-07-29T08:54:32.073Z,100393.06
2022-07-29T08:57:37.205Z,100386.59
2022-07-29T09:00:47.645Z,100381.91
2022-07-29T09:03:56.436Z,100383.88
2022-07-29T09:07:01.854Z,100379.06
2022-07-29T09:10:05.778Z,100381.25
2022-07-29T09:13:09.065Z,100374.59
2022-07-29T09:16:11.644Z,100374.88
2022-07-29T09:19:45.338Z,100370.22
2022-07-29T09:22:51.855Z,100371.38
2022-07-29T09:25:54.738Z,100364.91
2022-07-29T09:28:58.797Z,100369.72
2022-07-29T09:32:01.712Z,100363.19
2022-07-29T09:35:17.190Z,100358.87
2022-07-29T09:38:20.259Z,100362.19
2022-07-29T09:41:22.882Z,100361.75
2022-07-29T09:44:26.867Z,100354.75
2022-07-29T09:47:50.244Z,100350.62
2022-07-29T09:50:53.535Z,100345.44
2022-07-29T09:53:56.082Z,100339.03
2022-07-29T09:56:58.815Z,100339.47
2022-07-29T10:00:10.427Z,100334.47
2022-07-29T10:03:15.859Z,100334.66
2022-07-29T10:06:18.856Z,100332.16
2022-07-29T10:09:22.226Z,100329.44
2022-07-29T10:12:28.301Z,100326.38
2022-07-29T10:15:33.427Z,100329.25
2022-07-29T10:18:38.685Z,100324.91
2022-07-29T10:21:44.218Z,100329.19
2022-07-29T10:24:47.243Z,100329.44
2022-07-29T10:27:52.075Z,100314.87
2022-07-29T10:31:05.567Z,100316.72
2022-07-29T10:34:49.345Z,100313.44
2022-07-29T10:38:07.559Z,100305.37
2022-07-29T10:41:46.740Z,100301.44
2022-07-29T10:44:50.657Z,100300.34
2022-07-29T10:48:05.682Z,100307.31
2022-07-29T10:51:10.944Z,100308.78
2022-07-29T10:54:16.415Z,100302.25
2022-07-29T10:57:52.998Z,100298.78
2022-07-29T11:00:54.977Z,100289.72
2022-07-29T11:03:59.210Z,100289.28
2022-07-29T11:07:03.867Z,100281.16
2022-07-29T11:10:13.851Z,100279.50
2022-07-29T11:13:44.718Z,100277.97
2022-07-29T11:17:06.456Z,100273.81
2022-07-29T11:20:37.776Z,100273.66
2022-07-29T11:23:43.359Z,100275.75
2022-07-29T11:27:14.708Z,100270.72
2022-07-29T11:30:21.899Z,100274.97
2022-07-29T11:33:54.181Z,100260.53
2022-07-29T11:37:07.508Z,100254.09
2022-07-29T11:40:12.632Z,100244.09
2022-07-29T11:44:08.899Z,100248.22
2022-07-29T11:47:12.080Z,100242.91
2022-07-29T11:50:37.485Z,100241.97
2022-07-29T11:53:52.466Z,100243.50
2022-07-29T11:56:56.045Z,100238.22
2022-07-29T12:00:03.056Z,100231.00
2022-07-29T12:03:12.524Z,100229.00
2022-07-29T12:09:40.438Z,100228.78
2022-07-29T12:12:53.768Z,100224.97
2022-07-29T12:16:00.041Z,100226.56
2022-07-29T12:19:04.257Z,100223.91
2022-07-29T12:22:07.182Z,100219.63
2022-07-29T12:25:32.554Z,100212.41
2022-07-29T12:28:39.885Z,100205.97
2022-07-29T12:31:45.321Z,100208.50
2022-07-29T12:34:48.938Z,100203.50
2022-07-29T12:37:53.131Z,100199.13
2022-07-29T12:40:58.886Z,100190.78
2022-07-29T12:44:01.811Z,100182.56
2022-07-29T12:47:05.205Z,100165.47
2022-07-29T12:50:21.114Z,100172.47
2022-07-29T12:53:27.573Z,100178.69
2022-07-29T12:56:45.763Z,100163.78
2022-07-29T13:00:22.598Z,100162.84
2022-07-29T13:03:25.160Z,100155.19
2022-07-29T13:06:38.783Z,100160.66
2022-07-29T13:09:48.536Z,100160.34
2022-07-29T13:13:16.245Z,100156.88
2022-07-29T13:16:19.965Z,100156.00
2022-07-29T13:19:35.242Z,100154.22
2022-07-29T13:22:37.840Z,100148.63
2022-07-29T13:25:41.775Z,100139.38
2022-07-29T13:28:44.447Z,100129.78
2022-07-29T13:31:47.303Z,100141.63
2022-07-29T13:34:50.130Z,100136.34
2022-07-29T13:37:53.572Z,100133.41
2022-07-29T13:40:56.372Z,100128.25
2022-07-29T13:43:59.207Z,100128.69
2022-07-29T13:47:01.975Z,100121.66
2022-07-29T13:50:06.835Z,100126.25
2022-07-29T13:53:09.654Z,100115.78
2022-07-29T13:56:20.504Z,100115.91
2022-07-29T13:59:23.004Z,100108.25
2022-07-29T14:02:26.355Z,100102.69
2022-07-29T14:05:29.386Z,100103.16
2022-07-29T14:08:31.953Z,100097.19
2022-07-29T14:11:34.776Z,100098.34
2022-07-29T14:14:37.767Z,100099.75
2022-07-29T14:17:40.698Z,100095.03
2022-07-29T14:20:43.374Z,100088.56
2022-07-29T14:23:46.216Z,100093.94
2022-07-29T14:26:49.080Z,100084.84
2022-07-29T14:29:52.151Z,100082.94
2022-07-29T14:32:54.683Z,100087.81
2022-07-29T14:36:01.006Z,100080.13
2022-07-29T14:39:04.077Z,100078.81
2022-07-29T14:42:08.890Z,100064.88
2022-07-29T14:45:11.850Z,100065.41
2022-07-29T14:48:14.782Z,100061.97
2022-07-29T14:51:17.276Z,100069.03
2022-07-29T14:54:20.203Z,100059.84
2022-07-29T14:57:22.762Z,100053.47
2022-07-29T15:00:27.723Z,100054.97
2022-07-29T15:03:30.480Z,100046.81
2022-07-29T15:06:37.357Z,100029.94
2022-07-29T15:09:40.386Z,100034.19
2022-07-29T15:12:53.040Z,100030.97
2022-07-29T15:16:00.092Z,100031.88
2022-07-29T15:19:03.751Z,100036.44
2022-07-29T15:22:06.565Z,100033.72
2022-07-29T15:25:10.003Z,100025.53
2022-07-29T15:28:12.665Z,100027.31
2022-07-29T15:31:15.543Z,100031.06
2022-07-29T15:34:18.298Z,100022.03
2022-07-29T15:37:21.304Z,100022.34
2022-07-29T15:40:25.578Z,100026.72
2022-07-29T15:43:28.358Z,100021.75
2022-07-29T15:46:49.377Z,100019.47
2022-07-29T15:49:52.441Z,100012.41
2022-07-29T15:52:54.937Z,100019.84
2022-07-29T15:55:57.720Z,100004.38
2022-07-29T15:59:00.934Z,100011.34
2022-07-29T16:02:04.202Z,100003.50
2022-07-29T16:05:09.483Z,99992.13
2022-07-29T16:08:12.210Z,99998.59
2022-07-29T16:11:14.964Z,100003.19
2022-07-29T16:14:18.374Z,99997.34
2022-07-29T16:17:21.216Z,99999.38
2022-07-29T16:20:23.990Z,100005.19
2022-07-29T16:23:26.881Z,99999.72
2022-07-29T16:26:29.373Z,100000.53
2022-07-29T16:29:32.547Z,99990.38
2022-07-29T16:32:35.460Z,99995.28
2022-07-29T16:35:40.391Z,99989.50
2022-07-29T16:38:47.006Z,99988.56
2022-07-29T16:41:50.372Z,99993.75
2022-07-29T16:44:52.892Z,99994.94
2022-07-29T16:48:00.194Z,99988.13
2022-07-29T16:51:03.703Z,99986.50
2022-07-29T16:54:06.692Z,99981.69
2022-07-29T16:57:09.198Z,99984.91
2022-07-29T17:00:13.522Z,99985.37
2022-07-29T17:03:16.000Z,99989.34
2022-07-29T17:06:18.760Z,99990.16
2022-07-29T17:09:21.353Z,99987.28
2022-07-29T17:12:24.697Z,99988.34
2022-07-29T17:15:27.278Z,99980.53
2022-07-29T17:18:30.057Z,99981.19
2022-07-29T17:21:32.688Z,99988.00
2022-07-29T17:24:35.624Z,99991.69
2022-07-29T17:27:38.124Z,99990.34
2022-07-29T17:30:40.907Z,99992.47
2022-07-29T17:33:43.576Z,99995.53
2022-07-29T17:36:46.478Z,99995.88
2022-07-29T17:39:49.072Z,99999.03
2022-07-29T17:42:51.981Z,99987.94
2022-07-29T17:45:59.293Z,99995.09
2022-07-29T17:49:02.621Z,99998.22
2022-07-29T17:52:05.474Z,99994.75
2022-07-29T17:55:10.318Z,99996.44
2022-07-29T17:58:12.918Z,99990.91
2022-07-29T18:01:16.321Z,99995.69
2022-07-29T18:04:23.253Z,99995.66
2022-07-29T18:07:25.796Z,99994.44
2022-07-29T18:10:28.612Z,100002.84
2022-07-29T18:13:31.280Z,100007.56
2022-07-29T18:16:34.184Z,100002.41
2022-07-29T18:19:36.773Z,100007.09
2022-07-29T18:22:39.559Z,100009.09
2022-07-29T18:25:42.143Z,100008.41
2022-07-29T18:28:45.015Z,100008.75
2022-07-29T18:31:47.687Z,100017.28
2022-07-29T18:34:50.566Z,100015.75
2022-07-29T18:38:02.017Z,100021.59
2022-07-29T18:41:05.582Z,100030.63
2022-07-29T18:44:09.649Z,100033.25
2022-07-29T18:47:12.894Z,100044.81
2022-07-29T18:50:16.462Z,100054.31
2022-07-29T18:53:19.410Z,100058.19
2022-07-29T18:56:22.144Z,100060.22
2022-07-29T18:59:25.021Z,100067.56
2022-07-29T19:02:28.095Z,100073.69
2022-07-29T19:05:31.156Z,100085.81
2022-07-29T19:08:33.745Z,100085.31
2022-07-29T19:11:38.492Z,100087.50
2022-07-29T19:14:41.099Z,100097.31
2022-07-29T19:17:43.989Z,100084.47
2022-07-29T19:20:46.533Z,100092.50
2022-07-29T19:24:01.458Z,100091.94
2022-07-29T19:27:10.041Z,100098.84
2022-07-29T19:30:13.415Z,100105.88
2022-07-29T19:33:17.642Z,100090.09
2022-07-29T19:36:20.693Z,100098.28
2022-07-29T19:39:34.974Z,100097.81
2022-07-29T19:42:38.898Z,100094.22
2022-07-29T19:45:41.509Z,100098.94
2022-07-29T19:48:44.978Z,100099.22
2022-07-29T19:51:47.517Z,100098.66
2022-07-29T19:54:50.343Z,100102.72
2022-07-29T19:57:53.424Z,100095.19
2022-07-29T20:00:56.319Z,100090.72
2022-07-29T20:03:59.135Z,100088.78
2022-07-29T20:07:02.197Z,100097.06
2022-07-29T20:10:07.562Z,100092.50
2022-07-29T20:13:10.488Z,100095.84
2022-07-29T20:16:13.374Z,100098.63
2022-07-29T20:19:16.873Z,100095.03
2022-07-29T20:22:20.997Z,100102.38
2022-07-29T20:25:24.150Z,100105.31
2022-07-29T20:28:27.055Z,100112.78
2022-07-29T20:31:30.617Z,100115.69
2022-07-29T20:34:33.535Z,100124.25
2022-07-29T20:37:52.499Z,100118.63
2022-07-29T20:40:58.962Z,100122.28
2022-07-29T20:44:02.410Z,100120.69
2022-07-29T20:47:05.327Z,100117.53
2022-07-29T20:50:09.933Z,100121.56
2022-07-29T20:53:13.047Z,100123.53
2022-07-29T20:56:15.595Z,100131.87
2022-07-29T20:59:18.451Z,100134.09
2022-07-29T21:02:21.029Z,100144.34
2022-07-29T21:05:23.864Z,100137.56
2022-07-29T21:08:26.827Z,100142.91
2022-07-29T21:11:43.419Z,100146.72
2022-07-29T21:14:48.104Z,100135.44
2022-07-29T21:17:52.713Z,100136.66
2022-07-29T21:20:55.548Z,100149.75
2022-07-29T21:23:58.381Z,100151.78
2022-07-29T21:27:21.162Z,100149.50
2022-07-29T21:30:24.675Z,100157.47
2022-07-29T21:33:28.537Z,100156.47
2022-07-29T21:36:48.475Z,100143.53
2022-07-29T21:39:51.650Z,100148.50
2022-07-29T21:42:54.476Z,100170.44
2022-07-29T21:45:58.512Z,100165.44
2022-07-29T21:49:01.447Z,100165.09
2022-07-29T21:52:05.183Z,100170.06
2022-07-29T21:55:08.358Z,100178.94
2022-07-29T21:58:15.524Z,100178.12
2022-07-29T22:01:18.359Z,100173.94
2022-07-29T22:04:21.729Z,100190.53
2022-07-29T22:07:24.662Z,100195.47
2022-07-29T22:10:47.434Z,100194.25
2022-07-29T22:13:50.082Z,100200.25
2022-07-29T22:16:52.919Z,100197.09
2022-07-29T22:20:00.804Z,100201.22
2022-07-29T22:23:03.609Z,100198.66
2022-07-29T22:26:06.497Z,100193.97
2022-07-29T22:29:17.611Z,100207.06
2022-07-29T22:32:20.142Z,100200.72
2022-07-29T22:35:22.885Z,100198.22
2022-07-29T22:38:25.431Z,100205.63
2022-07-29T22:41:28.193Z,100202.63
2022-07-29T22:44:30.903Z,100205.06
2022-07-29T22:47:45.869Z,100200.91
2022-07-29T22:50:51.582Z,100194.47
2022-07-29T22:53:54.514Z,100203.22
2022-07-29T22:56:57.352Z,100191.22
2022-07-29T23:00:03.177Z,100183.75
2022-07-29T23:03:06.094Z,100185.44
2022-07-29T23:06:09.038Z,100178.25
2022-07-29T23:09:11.534Z,100180.06
2022-07-29T23:12:14.353Z,100178.88
2022-07-29T23:15:16.898Z,100176.69
2022-07-29T23:18:21.040Z,100178.72
2022-07-29T23:21:23.697Z,100173.41
2022-07-29T23:24:26.532Z,100164.06
2022-07-29T23:27:29.231Z,100164.44
2022-07-29T23:30:32.269Z,100166.19
2022-07-29T23:33:34.752Z,100160.28
2022-07-29T23:36:37.525Z,100161.09
2022-07-29T23:39:40.052Z,100157.56
2022-07-29T23:42:43.330Z,100148.09
2022-07-29T23:45:48.657Z,100141.22
2022-07-29T23:48:51.874Z,100139.56
2022-07-29T23:51:54.437Z,100136.41
2022-07-29T23:55:36.331Z,100131.56
2022-07-29T23:58:19.688Z,100135.84
